Time;durP1;ratioP1;P1;durP2;ratioP2;P2;SDS_P1;SDS_P2;PMS_P1;PMS_P2;Temp;Humidity;BMP_temperature;BMP_pressure;BME280_temperature;BME280_humidity;BME280_pressure;Samples;Min_cycle;Max_cycle;Signal;HPM_P1;HPM_P2
2023/01/16 00:00:18;;;;;;;12.05;1.23;;;;;;;;;;6215136;23;20036;-42
2023/01/16 00:02:46;;;;;;;11.10;0.90;;;;;;;;;;6200436;23;20051;-42
2023/01/16 00:05:13;;;;;;;11.65;1.42;;;;;;;;;;6216368;23;20039;-42
2023/01/16 00:07:41;;;;;;;10.75;1.17;;;;;;;;;;6198765;23;20048;-42
2023/01/16 00:10:09;;;;;;;9.02;0.93;;;;;;;;;;6215367;23;20019;-41
2023/01/16 00:12:38;;;;;;;7.65;1.13;;;;;;;;;;6202309;23;20120;-45
2023/01/16 00:15:06;;;;;;;14.17;1.33;;;;;;;;;;6207591;23;20142;-44
2023/01/16 00:17:34;;;;;;;9.32;1.52;;;;;;;;;;6196708;23;20016;-42
2023/01/16 00:20:02;;;;;;;9.63;1.02;;;;;;;;;;6216313;23;20356;-42
2023/01/16 00:22:33;;;;;;;8.80;0.85;;;;;;;;;;6207676;23;20402;-44
2023/01/16 00:25:01;;;;;;;6.75;0.65;;;;;;;;;;6208884;23;20667;-43
2023/01/16 00:27:29;;;;;;;11.40;1.00;;;;;;;;;;6217011;23;20062;-42
2023/01/16 00:29:58;;;;;;;11.50;0.90;;;;;;;;;;6220775;23;20048;-45
2023/01/16 00:32:26;;;;;;;12.68;0.63;;;;;;;;;;6209774;23;20016;-42
2023/01/16 00:34:54;;;;;;;11.35;1.20;;;;;;;;;;6219191;23;20111;-44
2023/01/16 00:37:21;;;;;;;8.43;1.13;;;;;;;;;;6215688;23;20036;-42
2023/01/16 00:39:51;;;;;;;16.83;1.63;;;;;;;;;;6218640;23;20331;-41
2023/01/16 00:42:19;;;;;;;11.90;0.98;;;;;;;;;;6215811;23;20093;-42
2023/01/16 00:44:48;;;;;;;7.75;0.75;;;;;;;;;;6218807;23;20067;-43
2023/01/16 00:47:17;;;;;;;12.85;1.05;;;;;;;;;;6223008;23;20039;-41
2023/01/16 00:49:45;;;;;;;13.85;1.15;;;;;;;;;;6204195;23;20059;-44
2023/01/16 00:52:12;;;;;;;9.53;1.03;;;;;;;;;;6215326;23;20008;-41
2023/01/16 00:54:40;;;;;;;11.35;1.40;;;;;;;;;;6209244;23;20059;-41
2023/01/16 00:57:08;;;;;;;14.07;1.25;;;;;;;;;;6223683;23;20478;-41
2023/01/16 00:59:35;;;;;;;13.57;1.73;;;;;;;;;;6214836;23;20062;-41
2023/01/16 01:02:03;;;;;;;10.20;1.58;;;;;;;;;;6218592;23;20058;-41
2023/01/16 01:04:32;;;;;;;20.30;1.70;;;;;;;;;;6200959;23;20404;-42
2023/01/16 01:07:00;;;;;;;11.15;1.90;;;;;;;;;;6215754;23;20096;-44
2023/01/16 01:09:27;;;;;;;13.52;2.22;;;;;;;;;;6203961;23;20020;-41
2023/01/16 01:11:56;;;;;;;12.35;2.53;;;;;;;;;;6218433;23;20009;-42
2023/01/16 01:14:24;;;;;;;15.05;2.63;;;;;;;;;;6216594;23;20451;-41
2023/01/16 01:16:52;;;;;;;17.20;3.10;;;;;;;;;;6216251;23;20019;-42
2023/01/16 01:19:19;;;;;;;12.90;3.00;;;;;;;;;;6213808;23;20044;-42
2023/01/16 01:21:49;;;;;;;15.38;3.00;;;;;;;;;;6216801;23;20047;-44
2023/01/16 01:24:17;;;;;;;12.20;2.58;;;;;;;;;;6221864;23;20020;-42
2023/01/16 01:26:46;;;;;;;11.82;2.33;;;;;;;;;;6207494;23;20036;-45
2023/01/16 01:29:13;;;;;;;16.43;2.57;;;;;;;;;;6213139;23;20018;-41
2023/01/16 01:31:41;;;;;;;18.70;1.92;;;;;;;;;;6196378;23;20070;-42
2023/01/16 01:34:09;;;;;;;12.27;1.88;;;;;;;;;;6205887;23;20431;-43
2023/01/16 01:36:36;;;;;;;12.50;2.40;;;;;;;;;;6221926;23;20058;-44
2023/01/16 01:39:05;;;;;;;16.63;2.47;;;;;;;;;;6204978;23;20020;-43
2023/01/16 01:41:33;;;;;;;14.17;2.00;;;;;;;;;;6220154;23;20020;-45
2023/01/16 01:44:00;;;;;;;15.48;1.90;;;;;;;;;;6211411;23;20074;-42
2023/01/16 01:46:31;;;;;;;12.55;1.48;;;;;;;;;;6213876;23;20450;-42
2023/01/16 01:49:01;;;;;;;10.70;1.48;;;;;;;;;;6220964;22;20042;-42
2023/01/16 01:51:32;;;;;;;11.80;1.85;;;;;;;;;;6199305;23;20016;-41
2023/01/16 01:54:03;;;;;;;7.93;1.60;;;;;;;;;;6216479;23;20511;-42
2023/01/16 01:56:34;;;;;;;12.10;1.60;;;;;;;;;;6209549;23;20383;-44
2023/01/16 01:59:06;;;;;;;9.40;1.20;;;;;;;;;;6216797;23;20370;-41
2023/01/16 02:01:33;;;;;;;13.18;1.20;;;;;;;;;;6218914;23;20087;-41
2023/01/16 02:04:03;;;;;;;11.70;1.08;;;;;;;;;;6215482;23;20023;-43
2023/01/16 02:06:33;;;;;;;9.97;1.30;;;;;;;;;;6213615;23;20040;-42
2023/01/16 02:09:03;;;;;;;11.93;1.15;;;;;;;;;;6211332;23;20094;-43
2023/01/16 02:11:35;;;;;;;13.82;1.38;;;;;;;;;;6215793;23;20099;-44
2023/01/16 02:14:05;;;;;;;5.70;0.75;;;;;;;;;;6221517;22;20093;-43
2023/01/16 02:19:26;;;;;;;10.00;1.10;;;;;;;;;;6219400;23;20454;-42
2023/01/16 02:22:08;;;;;;;15.18;1.10;;;;;;;;;;6213611;23;20012;-42
2023/01/16 02:24:56;;;;;;;10.52;1.15;;;;;;;;;;6154489;22;20020;-42
2023/01/16 02:27:37;;;;;;;15.32;0.95;;;;;;;;;;6215107;23;20016;-43
2023/01/16 02:30:35;;;;;;;12.70;1.13;;;;;;;;;;6208551;23;20020;-42
2023/01/16 02:33:06;;;;;;;9.57;1.17;;;;;;;;;;6087206;23;20437;-45
2023/01/16 02:35:40;;;;;;;15.52;0.93;;;;;;;;;;6188990;22;20099;-41
2023/01/16 02:38:11;;;;;;;9.10;0.90;;;;;;;;;;6206388;23;20039;-42
2023/01/16 02:40:42;;;;;;;10.43;0.75;;;;;;;;;;6190311;23;20111;-41
2023/01/16 02:43:15;;;;;;;15.50;1.20;;;;;;;;;;6216464;23;20016;-41
2023/01/16 02:45:46;;;;;;;11.80;0.90;;;;;;;;;;6210648;23;20411;-41
2023/01/16 02:48:21;;;;;;;8.85;0.80;;;;;;;;;;6211151;23;20078;-41
2023/01/16 02:50:53;;;;;;;10.40;0.93;;;;;;;;;;6217707;23;20834;-41
2023/01/16 02:53:25;;;;;;;7.05;0.63;;;;;;;;;;6206889;23;20616;-43
2023/01/16 02:55:54;;;;;;;12.48;0.80;;;;;;;;;;6221604;23;20036;-42
2023/01/16 02:58:22;;;;;;;7.57;0.73;;;;;;;;;;6211707;23;20020;-42
2023/01/16 03:00:51;;;;;;;9.40;1.00;;;;;;;;;;6216675;23;20078;-42
2023/01/16 03:03:31;;;;;;;10.70;0.73;;;;;;;;;;6212294;23;20051;-42
2023/01/16 03:06:03;;;;;;;7.43;0.73;;;;;;;;;;6204125;23;20093;-42
2023/01/16 03:08:38;;;;;;;7.78;0.50;;;;;;;;;;6218092;23;20091;-42
2023/01/16 03:11:13;;;;;;;10.23;1.07;;;;;;;;;;6206158;23;20048;-42
2023/01/16 03:13:56;;;;;;;9.07;0.55;;;;;;;;;;6218107;23;20012;-41
2023/01/16 03:16:29;;;;;;;6.07;0.70;;;;;;;;;;6200576;23;20422;-44
2023/01/16 03:19:04;;;;;;;7.45;0.55;;;;;;;;;;6219226;23;20016;-41
2023/01/16 03:21:37;;;;;;;9.80;0.70;;;;;;;;;;6210157;23;20615;-42
2023/01/16 03:24:08;;;;;;;7.50;0.83;;;;;;;;;;6220145;23;20023;-42
2023/01/16 03:26:38;;;;;;;9.63;0.77;;;;;;;;;;6202010;23;20031;-42
2023/01/16 03:29:08;;;;;;;8.50;0.70;;;;;;;;;;6218376;23;20120;-42
2023/01/16 03:31:40;;;;;;;12.18;0.88;;;;;;;;;;6214989;23;20123;-43
2023/01/16 03:34:13;;;;;;;9.00;0.60;;;;;;;;;;6220436;23;20012;-41
2023/01/16 03:36:43;;;;;;;9.10;0.63;;;;;;;;;;6212674;23;20512;-42
2023/01/16 03:39:12;;;;;;;10.27;0.82;;;;;;;;;;6215442;23;20087;-41
2023/01/16 03:41:42;;;;;;;8.73;0.70;;;;;;;;;;6199309;23;20417;-42
2023/01/16 03:44:13;;;;;;;9.18;0.60;;;;;;;;;;6218161;23;20012;-44
2023/01/16 03:46:44;;;;;;;11.65;0.55;;;;;;;;;;6224103;23;20028;-42
2023/01/16 03:49:14;;;;;;;6.90;0.97;;;;;;;;;;6215683;23;20039;-42
2023/01/16 03:51:43;;;;;;;4.40;0.30;;;;;;;;;;6213459;23;20870;-42
2023/01/16 03:54:17;;;;;;;10.00;0.70;;;;;;;;;;6222896;23;20055;-42
2023/01/16 03:56:47;;;;;;;10.25;0.50;;;;;;;;;;6211381;23;20550;-43
2023/01/16 03:59:14;;;;;;;8.20;0.55;;;;;;;;;;6218352;23;20058;-41
2023/01/16 04:01:47;;;;;;;10.10;0.80;;;;;;;;;;6207331;23;20044;-41
2023/01/16 04:04:19;;;;;;;6.50;0.40;;;;;;;;;;6222998;23;20031;-42
2023/01/16 04:06:48;;;;;;;7.03;0.95;;;;;;;;;;6204568;23;20043;-42
2023/01/16 04:09:19;;;;;;;12.57;0.88;;;;;;;;;;6219729;23;20091;-44
2023/01/16 04:11:49;;;;;;;10.07;0.75;;;;;;;;;;6213590;23;20020;-41
2023/01/16 04:14:19;;;;;;;8.00;0.97;;;;;;;;;;6194356;23;20044;-42
2023/01/16 04:16:46;;;;;;;7.53;0.60;;;;;;;;;;6220161;23;20775;-43
2023/01/16 04:19:15;;;;;;;13.38;1.08;;;;;;;;;;6203318;23;20470;-41
2023/01/16 04:21:46;;;;;;;11.90;1.05;;;;;;;;;;6220581;23;20506;-41
2023/01/16 04:24:18;;;;;;;7.32;0.45;;;;;;;;;;6215047;23;21056;-46
2023/01/16 04:26:45;;;;;;;7.97;0.47;;;;;;;;;;6217534;23;20016;-44
2023/01/16 04:29:13;;;;;;;6.57;0.70;;;;;;;;;;6214711;23;20095;-41
2023/01/16 04:31:40;;;;;;;9.70;0.77;;;;;;;;;;6223323;23;20028;-42
2023/01/16 04:34:08;;;;;;;7.88;0.70;;;;;;;;;;6204634;23;20016;-44
2023/01/16 04:36:36;;;;;;;10.48;1.30;;;;;;;;;;6219346;23;20020;-42
2023/01/16 04:39:05;;;;;;;9.60;0.80;;;;;;;;;;6202575;23;20016;-42
2023/01/16 04:41:40;;;;;;;10.10;0.88;;;;;;;;;;6216693;23;20111;-44
2023/01/16 04:44:10;;;;;;;13.90;1.00;;;;;;;;;;6217139;23;20074;-42
2023/01/16 04:46:38;;;;;;;9.35;1.15;;;;;;;;;;6204178;23;20024;-43
2023/01/16 04:49:06;;;;;;;11.88;1.70;;;;;;;;;;6214135;23;20016;-41
2023/01/16 04:51:34;;;;;;;10.23;1.37;;;;;;;;;;6210298;23;20406;-43
2023/01/16 04:54:01;;;;;;;12.32;1.67;;;;;;;;;;6189125;23;20054;-42
2023/01/16 04:56:30;;;;;;;10.15;1.67;;;;;;;;;;6216408;23;20518;-41
2023/01/16 04:58:58;;;;;;;13.70;1.90;;;;;;;;;;6213397;23;20110;-42
2023/01/16 05:01:25;;;;;;;10.40;1.30;;;;;;;;;;6214627;23;20047;-42
2023/01/16 05:03:53;;;;;;;9.57;1.30;;;;;;;;;;6199593;23;20209;-44
2023/01/16 05:06:21;;;;;;;11.18;1.48;;;;;;;;;;6216441;23;20021;-43
2023/01/16 05:08:49;;;;;;;12.60;1.60;;;;;;;;;;6192962;23;20836;-41
2023/01/16 05:11:16;;;;;;;13.52;1.38;;;;;;;;;;6210133;23;20215;-41
2023/01/16 05:13:45;;;;;;;10.27;0.95;;;;;;;;;;6206007;23;20016;-42
2023/01/16 05:16:13;;;;;;;8.63;1.10;;;;;;;;;;6212618;23;20113;-43
2023/01/16 05:18:40;;;;;;;6.38;1.30;;;;;;;;;;6203884;23;20039;-41
2023/01/16 05:21:08;;;;;;;8.15;1.58;;;;;;;;;;6218537;23;20115;-42
2023/01/16 05:23:37;;;;;;;9.30;1.15;;;;;;;;;;6213262;23;20036;-43
2023/01/16 05:26:05;;;;;;;8.50;1.20;;;;;;;;;;6204983;23;20202;-41
2023/01/16 05:28:33;;;;;;;11.20;1.30;;;;;;;;;;6214815;23;20024;-41
2023/01/16 05:31:03;;;;;;;9.18;1.20;;;;;;;;;;6208142;23;20024;-42
2023/01/16 05:33:31;;;;;;;9.90;1.38;;;;;;;;;;6217115;23;20628;-42
2023/01/16 05:35:59;;;;;;;11.10;1.05;;;;;;;;;;6204747;22;20066;-41
2023/01/16 05:38:26;;;;;;;7.75;1.40;;;;;;;;;;6210683;23;20399;-44
2023/01/16 05:40:56;;;;;;;7.90;1.20;;;;;;;;;;6216307;23;20123;-43
2023/01/16 05:43:24;;;;;;;9.98;1.25;;;;;;;;;;6208602;23;20442;-42
2023/01/16 05:45:53;;;;;;;7.80;1.40;;;;;;;;;;6215901;23;20044;-42
2023/01/16 05:48:23;;;;;;;8.15;1.25;;;;;;;;;;6207547;23;20383;-42
2023/01/16 05:50:51;;;;;;;5.30;0.85;;;;;;;;;;6216564;23;20024;-42
2023/01/16 05:53:19;;;;;;;5.93;1.10;;;;;;;;;;6199547;23;20394;-44
2023/01/16 05:55:48;;;;;;;5.47;1.00;;;;;;;;;;6210512;23;20054;-41
2023/01/16 05:58:17;;;;;;;8.32;0.98;;;;;;;;;;6201428;23;20054;-41
2023/01/16 06:00:48;;;;;;;4.70;0.68;;;;;;;;;;6209525;23;20047;-43
2023/01/16 06:03:20;;;;;;;5.72;0.88;;;;;;;;;;6217967;22;20019;-43
2023/01/16 06:05:50;;;;;;;5.87;1.20;;;;;;;;;;6216909;23;20070;-42
2023/01/16 06:08:17;;;;;;;6.63;0.90;;;;;;;;;;6205654;23;20027;-42
2023/01/16 06:10:45;;;;;;;4.47;0.75;;;;;;;;;;6219120;23;20016;-41
2023/01/16 06:13:12;;;;;;;4.80;0.63;;;;;;;;;;6206411;23;20012;-41
2023/01/16 06:15:40;;;;;;;5.75;0.63;;;;;;;;;;6214215;23;20043;-41
2023/01/16 06:18:08;;;;;;;5.83;0.93;;;;;;;;;;6212692;23;20363;-42
2023/01/16 06:20:35;;;;;;;6.15;0.80;;;;;;;;;;6216553;23;20043;-42
2023/01/16 06:23:04;;;;;;;4.97;0.70;;;;;;;;;;6217586;23;20070;-42
2023/01/16 06:25:36;;;;;;;7.03;1.13;;;;;;;;;;6215507;22;20032;-41
2023/01/16 06:28:04;;;;;;;6.80;1.35;;;;;;;;;;6215625;23;20083;-41
2023/01/16 06:30:31;;;;;;;9.30;1.40;;;;;;;;;;6211328;23;20020;-41
2023/01/16 06:32:59;;;;;;;7.53;1.85;;;;;;;;;;6218285;23;20063;-43
2023/01/16 06:35:27;;;;;;;6.70;1.67;;;;;;;;;;6213313;23;20096;-45
2023/01/16 06:37:54;;;;;;;8.10;1.80;;;;;;;;;;6222248;23;20012;-42
2023/01/16 06:40:24;;;;;;;5.75;1.38;;;;;;;;;;6211219;23;20338;-42
2023/01/16 06:42:51;;;;;;;8.40;1.73;;;;;;;;;;6216670;23;20044;-42
2023/01/16 06:45:21;;;;;;;6.07;1.42;;;;;;;;;;6211957;23;20008;-44
2023/01/16 06:47:51;;;;;;;7.82;1.65;;;;;;;;;;6214567;23;20016;-43
2023/01/16 06:50:19;;;;;;;8.02;1.90;;;;;;;;;;6219514;23;20078;-44
2023/01/16 06:52:46;;;;;;;4.68;1.20;;;;;;;;;;6202845;23;20462;-42
2023/01/16 06:55:14;;;;;;;7.33;1.50;;;;;;;;;;6216369;23;20017;-42
2023/01/16 06:57:46;;;;;;;5.90;1.55;;;;;;;;;;6210670;23;20026;-41
2023/01/16 07:00:14;;;;;;;6.93;1.90;;;;;;;;;;6221113;23;20051;-41
2023/01/16 07:02:50;;;;;;;6.60;1.50;;;;;;;;;;6214255;22;20055;-41
2023/01/16 07:05:17;;;;;;;5.70;1.80;;;;;;;;;;6220936;23;20012;-42
2023/01/16 07:07:45;;;;;;;8.77;1.50;;;;;;;;;;6210699;23;20023;-42
2023/01/16 07:10:13;;;;;;;6.20;2.08;;;;;;;;;;6218341;23;20047;-44
2023/01/16 07:12:40;;;;;;;6.78;2.00;;;;;;;;;;6212206;23;20103;-42
2023/01/16 07:23:29;;;;;;;6.78;1.90;;;;;;;;;;6219872;23;20039;-43
2023/01/16 07:25:57;;;;;;;6.47;2.20;;;;;;;;;;6214002;23;20402;-41
2023/01/16 07:28:25;;;;;;;10.00;2.58;;;;;;;;;;6218724;23;20016;-45
2023/01/16 07:30:55;;;;;;;9.02;3.10;;;;;;;;;;6210521;23;20016;-42
2023/01/16 07:33:23;;;;;;;8.33;3.17;;;;;;;;;;6210745;23;20086;-42
2023/01/16 07:35:50;;;;;;;9.73;3.95;;;;;;;;;;6215674;23;20036;-41
2023/01/16 07:38:18;;;;;;;6.32;2.50;;;;;;;;;;6214008;23;20043;-43
2023/01/16 07:40:45;;;;;;;10.35;4.10;;;;;;;;;;6210702;23;20048;-42
2023/01/16 07:43:13;;;;;;;10.82;4.20;;;;;;;;;;6219442;23;20107;-43
2023/01/16 07:45:41;;;;;;;9.73;4.33;;;;;;;;;;6216658;23;20016;-41
2023/01/16 07:48:10;;;;;;;9.23;3.65;;;;;;;;;;6210625;23;20016;-42
2023/01/16 07:50:37;;;;;;;9.45;4.32;;;;;;;;;;6221244;23;20095;-42
2023/01/16 07:53:05;;;;;;;11.05;3.60;;;;;;;;;;6209742;23;20462;-44
2023/01/16 07:55:33;;;;;;;8.60;3.30;;;;;;;;;;6219816;23;20066;-42
2023/01/16 07:58:01;;;;;;;8.77;2.80;;;;;;;;;;6211724;23;20020;-42
2023/01/16 08:00:29;;;;;;;8.05;3.22;;;;;;;;;;6213061;23;20016;-43
2023/01/16 08:02:56;;;;;;;8.93;3.63;;;;;;;;;;6219445;23;20052;-42
2023/01/16 08:05:27;;;;;;;11.15;3.70;;;;;;;;;;6206449;23;20012;-43
2023/01/16 08:07:55;;;;;;;8.88;3.90;;;;;;;;;;6216205;23;20091;-44
2023/01/16 08:10:22;;;;;;;10.23;4.10;;;;;;;;;;6207234;23;20039;-43
2023/01/16 08:12:50;;;;;;;9.43;3.90;;;;;;;;;;6204440;23;20091;-41
2023/01/16 08:15:18;;;;;;;9.40;4.03;;;;;;;;;;6205211;23;20012;-44
2023/01/16 08:17:46;;;;;;;9.80;3.20;;;;;;;;;;6214051;23;20046;-47
2023/01/16 08:20:14;;;;;;;7.32;2.92;;;;;;;;;;6217519;23;20055;-41
2023/01/16 08:22:46;;;;;;;9.10;3.13;;;;;;;;;;6216215;23;20016;-43
2023/01/16 08:25:19;;;;;;;7.35;2.80;;;;;;;;;;6218746;23;20070;-41
2023/01/16 08:27:47;;;;;;;8.95;3.85;;;;;;;;;;6210917;23;20091;-42
2023/01/16 08:30:15;;;;;;;8.68;3.25;;;;;;;;;;6220656;23;20012;-42
2023/01/16 08:32:46;;;;;;;9.98;3.70;;;;;;;;;;6210458;23;20402;-42
2023/01/16 08:35:14;;;;;;;8.17;2.53;;;;;;;;;;6214663;23;20024;-41
2023/01/16 08:37:49;;;;;;;10.82;3.05;;;;;;;;;;6220688;23;20063;-43
2023/01/16 08:40:17;;;;;;;10.65;3.72;;;;;;;;;;6212447;23;20012;-41
2023/01/16 08:53:52;;;;;;;9.77;3.42;;;;;;;;;;6198506;23;20614;-41
2023/01/16 08:56:20;;;;;;;12.32;3.90;;;;;;;;;;6197075;22;20087;-41
2023/01/16 08:58:47;;;;;;;8.25;3.42;;;;;;;;;;6213452;23;20108;-41
2023/01/16 09:01:16;;;;;;;7.77;2.90;;;;;;;;;;6206088;23;20042;-41
2023/01/16 09:03:44;;;;;;;9.07;3.13;;;;;;;;;;6210327;23;20655;-41
2023/01/16 09:06:11;;;;;;;10.43;3.35;;;;;;;;;;6211897;23;20046;-41
2023/01/16 09:08:39;;;;;;;8.93;2.97;;;;;;;;;;6208938;23;20030;-41
2023/01/16 09:13:56;;;;;;;7.77;2.40;;;;;;;;;;6208276;23;20336;-42
2023/01/16 09:16:24;;;;;;;8.55;2.67;;;;;;;;;;6192020;23;20020;-41
2023/01/16 09:18:52;;;;;;;10.73;3.33;;;;;;;;;;6196897;23;20511;-41
2023/01/16 09:21:22;;;;;;;7.28;2.67;;;;;;;;;;6200307;23;20039;-42
2023/01/16 09:23:50;;;;;;;7.28;2.53;;;;;;;;;;6216908;23;20492;-43
2023/01/16 09:26:19;;;;;;;7.03;1.87;;;;;;;;;;6211518;23;20043;-46
2023/01/16 09:28:48;;;;;;;5.68;1.48;;;;;;;;;;6212282;23;20035;-44
2023/01/16 09:31:16;;;;;;;6.93;1.42;;;;;;;;;;6217166;23;20043;-41
2023/01/16 09:33:43;;;;;;;7.40;1.63;;;;;;;;;;6204024;23;20044;-41
2023/01/16 09:36:11;;;;;;;5.22;1.38;;;;;;;;;;6219396;23;20016;-41
2023/01/16 09:38:39;;;;;;;6.73;1.43;;;;;;;;;;6198002;23;20091;-41
2023/01/16 09:41:10;;;;;;;5.22;1.27;;;;;;;;;;6222978;23;20457;-46
2023/01/16 09:43:40;;;;;;;4.63;1.35;;;;;;;;;;6210408;23;20479;-42
2023/01/16 09:46:11;;;;;;;4.78;1.00;;;;;;;;;;6218233;23;20012;-41
2023/01/16 09:48:41;;;;;;;7.70;1.27;;;;;;;;;;6202083;23;20019;-42
2023/01/16 09:51:11;;;;;;;5.33;0.73;;;;;;;;;;6214908;23;20684;-41
2023/01/16 09:59:30;;;;;;;4.00;0.93;;;;;;;;;;6090015;23;20057;-44
2023/01/16 10:02:04;;;;;;;3.88;0.57;;;;;;;;;;6188384;22;20742;-43
2023/01/16 10:04:32;;;;;;;3.77;0.70;;;;;;;;;;6215633;23;20008;-43
2023/01/16 10:07:07;;;;;;;4.45;0.80;;;;;;;;;;6215543;23;20013;-42
2023/01/16 10:09:42;;;;;;;4.38;0.73;;;;;;;;;;6214904;23;20024;-41
2023/01/16 10:12:12;;;;;;;3.25;0.70;;;;;;;;;;6211904;23;20049;-41
2023/01/16 10:14:51;;;;;;;4.03;0.70;;;;;;;;;;6211588;23;20020;-41
2023/01/16 10:17:21;;;;;;;3.33;0.50;;;;;;;;;;6216483;22;20051;-43
2023/01/16 10:20:00;;;;;;;4.63;0.90;;;;;;;;;;6211647;23;20455;-42
2023/01/16 10:22:38;;;;;;;6.55;0.80;;;;;;;;;;6211386;23;20012;-41
2023/01/16 10:25:13;;;;;;;3.33;0.50;;;;;;;;;;6223282;23;20051;-43
2023/01/16 10:27:45;;;;;;;3.85;0.50;;;;;;;;;;6200359;23;20066;-41
2023/01/16 10:30:17;;;;;;;3.47;0.43;;;;;;;;;;6220851;23;20461;-42
2023/01/16 10:32:48;;;;;;;5.78;0.63;;;;;;;;;;6207543;23;20070;-42
2023/01/16 10:35:21;;;;;;;3.28;0.55;;;;;;;;;;6208934;23;20515;-43
2023/01/16 10:37:50;;;;;;;4.57;0.57;;;;;;;;;;6219841;23;20602;-41
2023/01/16 10:40:20;;;;;;;7.93;0.60;;;;;;;;;;6208297;23;20024;-42
2023/01/16 10:51:10;;;;;;;4.00;0.40;;;;;;;;;;6217338;23;20012;-43
2023/01/16 10:53:38;;;;;;;3.60;0.30;;;;;;;;;;6221605;23;20016;-42
2023/01/16 10:56:06;;;;;;;4.57;0.63;;;;;;;;;;6212121;23;20016;-42
2023/01/16 10:58:35;;;;;;;2.88;0.30;;;;;;;;;;6217231;23;20023;-42
2023/01/16 11:01:05;;;;;;;2.45;0.30;;;;;;;;;;6204648;23;20257;-41
2023/01/16 11:03:34;;;;;;;3.33;0.20;;;;;;;;;;6218735;23;20020;-41
2023/01/16 11:06:20;;;;;;;2.47;0.30;;;;;;;;;;6215868;23;20122;-43
2023/01/16 11:08:49;;;;;;;2.70;0.30;;;;;;;;;;6205038;23;20020;-42
2023/01/16 11:19:41;;;;;;;5.10;0.40;;;;;;;;;;6211674;23;20012;-45
2023/01/16 11:22:22;;;;;;;2.13;0.20;;;;;;;;;;6214882;23;20414;-44
2023/01/16 11:24:53;;;;;;;3.42;0.40;;;;;;;;;;6219146;23;20114;-43
2023/01/16 11:27:23;;;;;;;5.93;0.50;;;;;;;;;;6214415;23;20431;-43
2023/01/16 11:29:53;;;;;;;4.13;0.60;;;;;;;;;;6215365;23;20012;-42
2023/01/16 11:32:24;;;;;;;4.35;0.57;;;;;;;;;;6211244;23;20418;-41
2023/01/16 11:34:54;;;;;;;3.50;0.40;;;;;;;;;;6220409;22;20051;-44
2023/01/16 11:37:22;;;;;;;3.05;0.30;;;;;;;;;;6207978;23;20016;-42
2023/01/16 11:39:51;;;;;;;3.85;0.50;;;;;;;;;;6213004;23;20082;-41
2023/01/16 11:48:02;;;;;;;3.03;0.20;;;;;;;;;;6220267;23;20062;-43
2023/01/16 11:50:31;;;;;;;3.45;0.40;;;;;;;;;;6217312;23;20043;-41
2023/01/16 11:52:59;;;;;;;2.40;0.30;;;;;;;;;;6206997;23;20011;-42
2023/01/16 11:55:32;;;;;;;1.48;0.10;;;;;;;;;;6215268;23;20051;-42
2023/01/16 11:58:03;;;;;;;2.25;0.20;;;;;;;;;;6214992;23;20019;-42
2023/01/16 12:00:48;;;;;;;1.47;0.10;;;;;;;;;;6217201;23;20319;-42
2023/01/16 12:03:33;;;;;;;2.55;0.38;;;;;;;;;;6221223;23;20020;-41
2023/01/16 12:06:06;;;;;;;1.60;0.20;;;;;;;;;;6203053;23;20177;-42
2023/01/16 12:08:40;;;;;;;3.97;0.20;;;;;;;;;;6216473;23;20601;-44
2023/01/16 12:11:09;;;;;;;7.40;0.57;;;;;;;;;;6204191;23;20044;-43
2023/01/16 12:16:40;;;;;;;2.58;0.30;;;;;;;;;;6209178;22;20016;-41
2023/01/16 12:19:17;;;;;;;4.05;0.28;;;;;;;;;;6207600;22;20079;-43
2023/01/16 12:21:50;;;;;;;2.78;0.45;;;;;;;;;;6213421;23;20024;-43
2023/01/16 12:24:27;;;;;;;2.53;0.25;;;;;;;;;;6216172;23;20425;-40
2023/01/16 12:27:11;;;;;;;2.13;0.30;;;;;;;;;;6222498;23;20066;-43
2023/01/16 12:29:48;;;;;;;2.35;0.13;;;;;;;;;;6220168;23;20063;-42
2023/01/16 12:32:23;;;;;;;2.03;0.20;;;;;;;;;;6209025;22;20016;-41
2023/01/16 12:34:58;;;;;;;1.48;0.30;;;;;;;;;;6222772;23;20031;-40
2023/01/16 12:37:32;;;;;;;2.22;0.40;;;;;;;;;;6212750;23;20518;-43
2023/01/16 12:40:04;;;;;;;2.27;0.30;;;;;;;;;;6217417;23;20526;-41
2023/01/16 12:45:38;;;;;;;2.10;0.20;;;;;;;;;;6212562;23;20019;-40
2023/01/16 12:48:13;;;;;;;2.33;0.30;;;;;;;;;;6215990;23;20016;-42
2023/01/16 12:50:51;;;;;;;2.70;0.25;;;;;;;;;;6217265;23;20439;-40
2023/01/16 12:53:26;;;;;;;1.57;0.20;;;;;;;;;;6212355;23;20107;-40
2023/01/16 12:55:58;;;;;;;2.08;0.20;;;;;;;;;;6218617;23;20039;-43
2023/01/16 12:58:35;;;;;;;2.03;0.20;;;;;;;;;;6212815;23;20016;-40
2023/01/16 13:01:08;;;;;;;3.67;0.30;;;;;;;;;;6210249;23;20608;-40
2023/01/16 13:03:39;;;;;;;4.00;0.20;;;;;;;;;;6211006;23;20788;-43
2023/01/16 13:06:11;;;;;;;1.20;0.10;;;;;;;;;;6213909;23;20020;-41
2023/01/16 13:08:42;;;;;;;1.35;0.15;;;;;;;;;;6208423;23;20566;-41
2023/01/16 13:14:00;;;;;;;1.60;0.20;;;;;;;;;;6212277;23;20046;-42
2023/01/16 13:16:32;;;;;;;1.40;0.10;;;;;;;;;;6203325;23;20612;-41
2023/01/16 13:19:04;;;;;;;2.00;0.10;;;;;;;;;;6216481;23;20475;-41
2023/01/16 13:21:35;;;;;;;2.67;0.20;;;;;;;;;;6198641;23;20016;-42
2023/01/16 13:24:05;;;;;;;3.22;0.30;;;;;;;;;;6210019;23;20049;-40
2023/01/16 13:26:33;;;;;;;3.05;0.30;;;;;;;;;;6203797;23;20102;-40
2023/01/16 13:29:05;;;;;;;3.42;0.30;;;;;;;;;;6215027;23;20036;-40
2023/01/16 13:31:35;;;;;;;3.37;0.20;;;;;;;;;;6216289;23;20019;-40
2023/01/16 13:34:06;;;;;;;2.55;0.30;;;;;;;;;;6212723;23;20087;-40
2023/01/16 13:36:54;;;;;;;4.32;0.20;;;;;;;;;;6214842;23;20095;-40
2023/01/16 13:39:36;;;;;;;2.22;0.10;;;;;;;;;;6223486;23;20016;-41
2023/01/16 13:42:05;;;;;;;2.08;0.20;;;;;;;;;;6209347;23;20019;-41
2023/01/16 13:47:28;;;;;;;2.33;0.40;;;;;;;;;;6212445;23;20106;-42
2023/01/16 13:50:06;;;;;;;4.35;0.35;;;;;;;;;;6217031;23;20016;-41
2023/01/16 13:52:36;;;;;;;2.70;0.28;;;;;;;;;;6213356;23;20012;-41
2023/01/16 13:55:06;;;;;;;4.35;1.20;;;;;;;;;;6207192;23;20024;-41
2023/01/16 13:57:34;;;;;;;5.80;0.47;;;;;;;;;;6211069;23;20024;-40
2023/01/16 14:00:09;;;;;;;5.03;0.47;;;;;;;;;;6211128;23;20008;-41
2023/01/16 14:02:42;;;;;;;7.82;0.38;;;;;;;;;;6214320;23;20023;-41
2023/01/16 14:05:17;;;;;;;5.78;0.30;;;;;;;;;;6206688;23;20012;-40
2023/01/16 14:10:39;;;;;;;2.90;0.37;;;;;;;;;;6214975;23;20056;-40
2023/01/16 14:13:15;;;;;;;3.83;0.30;;;;;;;;;;6199125;23;20881;-40
2023/01/16 14:18:40;;;;;;;4.22;0.30;;;;;;;;;;6212885;23;20024;-40
2023/01/16 14:21:19;;;;;;;3.65;0.30;;;;;;;;;;6222713;23;20016;-40
2023/01/16 14:24:01;;;;;;;3.10;0.27;;;;;;;;;;6217921;23;20351;-40
2023/01/16 14:26:38;;;;;;;4.40;0.40;;;;;;;;;;6210678;23;20261;-42
2023/01/16 14:29:12;;;;;;;3.42;0.30;;;;;;;;;;6219826;23;20074;-40
2023/01/16 14:31:45;;;;;;;4.82;0.43;;;;;;;;;;6207673;22;20439;-41
2023/01/16 14:34:16;;;;;;;2.15;0.20;;;;;;;;;;6220849;23;20296;-40
2023/01/16 14:36:46;;;;;;;8.20;0.30;;;;;;;;;;6175400;23;20393;-42
2023/01/16 14:39:30;;;;;;;3.63;0.20;;;;;;;;;;6220997;23;20016;-40
2023/01/16 14:56:38;;;;;;;3.35;0.20;;;;;;;;;;6209920;23;20020;-40
2023/01/16 14:59:10;;;;;;;2.50;0.40;;;;;;;;;;6220991;23;20059;-42
2023/01/16 15:04:30;;;;;;;2.60;0.20;;;;;;;;;;6215179;23;20023;-43
2023/01/16 15:07:00;;;;;;;0.85;0.10;;;;;;;;;;6220188;22;20016;-42
2023/01/16 15:09:29;;;;;;;2.25;0.20;;;;;;;;;;6208285;23;20420;-42
2023/01/16 15:11:59;;;;;;;3.22;0.40;;;;;;;;;;6219684;23;20012;-42
2023/01/16 15:14:30;;;;;;;2.05;0.20;;;;;;;;;;6216563;23;20020;-42
2023/01/16 15:23:03;;;;;;;1.20;0.20;;;;;;;;;;6210674;23;20016;-42
2023/01/16 15:25:51;;;;;;;5.25;0.30;;;;;;;;;;6221282;23;20340;-42
2023/01/16 15:28:24;;;;;;;4.07;0.35;;;;;;;;;;6213584;23;20020;-43
2023/01/16 15:30:54;;;;;;;1.57;0.10;;;;;;;;;;6214525;23;20051;-42
2023/01/16 15:36:26;;;;;;;3.78;0.30;;;;;;;;;;6207161;23;20082;-42
2023/01/16 15:38:55;;;;;;;2.45;0.30;;;;;;;;;;6212890;23;20027;-42
2023/01/16 15:46:32;;;;;;;4.35;0.40;;;;;;;;;;6224878;23;20210;-42
2023/01/16 15:47:08;;;;;;;2.72;0.30;;;;;;;;;;6210068;23;20020;-43
2023/01/16 15:49:41;;;;;;;5.30;0.43;;;;;;;;;;6208846;23;20640;-42
2023/01/16 15:52:08;;;;;;;3.20;0.38;;;;;;;;;;6216800;23;20621;-42
2023/01/16 15:54:38;;;;;;;2.33;0.20;;;;;;;;;;6209576;23;20043;-42
2023/01/16 15:57:05;;;;;;;4.63;0.50;;;;;;;;;;6223247;23;20019;-42
2023/01/16 15:59:54;;;;;;;5.63;0.25;;;;;;;;;;6205515;23;20028;-42
2023/01/16 16:02:29;;;;;;;4.55;0.38;;;;;;;;;;6210771;23;20391;-42
2023/01/16 16:04:59;;;;;;;2.53;0.32;;;;;;;;;;6206560;22;20051;-43
2023/01/16 16:07:28;;;;;;;2.22;0.20;;;;;;;;;;6209195;23;20020;-43
2023/01/16 16:09:58;;;;;;;3.33;0.30;;;;;;;;;;6222275;23;20443;-44
2023/01/16 16:12:25;;;;;;;1.50;0.20;;;;;;;;;;6207335;23;20333;-45
2023/01/16 16:18:03;;;;;;;5.00;0.30;;;;;;;;;;6218035;23;20016;-42
2023/01/16 16:20:33;;;;;;;1.42;0.20;;;;;;;;;;6210550;23;20020;-41
2023/01/16 16:23:02;;;;;;;2.87;0.23;;;;;;;;;;6220509;23;20012;-44
2023/01/16 16:25:33;;;;;;;1.63;0.25;;;;;;;;;;6221090;23;20398;-41
2023/01/16 16:28:06;;;;;;;3.47;0.30;;;;;;;;;;6208089;23;20142;-41
2023/01/16 16:30:35;;;;;;;3.67;0.40;;;;;;;;;;6219267;23;20525;-41
2023/01/16 16:33:05;;;;;;;8.57;0.60;;;;;;;;;;6212903;23;20103;-41
2023/01/16 16:35:35;;;;;;;5.10;0.40;;;;;;;;;;6209374;23;20012;-41
2023/01/16 16:38:03;;;;;;;2.95;0.40;;;;;;;;;;6219635;23;20070;-43
2023/01/16 16:40:31;;;;;;;5.05;0.65;;;;;;;;;;6208192;23;20099;-42
2023/01/16 16:42:59;;;;;;;4.45;0.63;;;;;;;;;;6214586;23;20062;-42